sensor_id;sensor_type;location;lat;lon;timestamp;pressure;altitude;pressure_sealevel;temperature;humidity
72157;BME280;60035;52.122;5.406;2023-03-03T00:00:04;102752.56;;;1.02;100.00
72157;BME280;60035;52.122;5.406;2023-03-03T00:02:31;102754.09;;;0.98;100.00
72157;BME280;60035;52.122;5.406;2023-03-03T00:04:58;102762.41;;;0.95;100.00
72157;BME280;60035;52.122;5.406;2023-03-03T00:07:25;102759.75;;;0.92;100.00
72157;BME280;60035;52.122;5.406;2023-03-03T00:09:51;102753.78;;;0.90;100.00
72157;BME280;60035;52.122;5.406;2023-03-03T00:12:25;102760.34;;;0.87;100.00
72157;BME280;60035;52.122;5.406;2023-03-03T00:14:53;102758.56;;;0.84;100.00
72157;BME280;60035;52.122;5.406;2023-03-03T00:17:23;102759.28;;;0.81;100.00
72157;BME280;60035;52.122;5.406;2023-03-03T00:19:51;102757.50;;;0.79;100.00
72157;BME280;60035;52.122;5.406;2023-03-03T00:22:28;102758.28;;;0.78;100.00
72157;BME280;60035;52.122;5.406;2023-03-03T00:25:30;102768.47;;;0.79;100.00
72157;BME280;60035;52.122;5.406;2023-03-03T00:28:17;102770.13;;;0.79;100.00
72157;BME280;60035;52.122;5.406;2023-03-03T00:30:45;102767.59;;;0.79;100.00
72157;BME280;60035;52.122;5.406;2023-03-03T00:35:45;102777.16;;;0.86;100.00
72157;BME280;60035;52.122;5.406;2023-03-03T00:38:17;102779.75;;;0.88;100.00
72157;BME280;60035;52.122;5.406;2023-03-03T00:40:45;102782.38;;;0.91;100.00
72157;BME280;60035;52.122;5.406;2023-03-03T00:43:33;102777.34;;;0.91;100.00
72157;BME280;60035;52.122;5.406;2023-03-03T00:46:01;102784.91;;;0.91;100.00
72157;BME280;60035;52.122;5.406;2023-03-03T00:51:10;102774.69;;;0.88;100.00
72157;BME280;60035;52.122;5.406;2023-03-03T00:53:44;102781.38;;;0.87;100.00
72157;BME280;60035;52.122;5.406;2023-03-03T00:56:11;102784.72;;;0.86;100.00
72157;BME280;60035;52.122;5.406;2023-03-03T00:58:37;102788.09;;;0.87;100.00
72157;BME280;60035;52.122;5.406;2023-03-03T01:01:04;102780.47;;;0.85;100.00
72157;BME280;60035;52.122;5.406;2023-03-03T01:03:31;102785.50;;;0.85;100.00
72157;BME280;60035;52.122;5.406;2023-03-03T01:05:57;102783.09;;;0.88;100.00
72157;BME280;60035;52.122;5.406;2023-03-03T01:08:24;102789.88;;;0.89;100.00
72157;BME280;60035;52.122;5.406;2023-03-03T01:10:56;102791.69;;;0.92;100.00
72157;BME280;60035;52.122;5.406;2023-03-03T01:13:29;102787.44;;;0.91;100.00
72157;BME280;60035;52.122;5.406;2023-03-03T01:15:58;102788.28;;;0.91;100.00
72157;BME280;60035;52.122;5.406;2023-03-03T01:18:26;102790.06;;;0.94;100.00
72157;BME280;60035;52.122;5.406;2023-03-03T01:20:53;102790.16;;;0.95;100.00
72157;BME280;60035;52.122;5.406;2023-03-03T01:23:19;102787.53;;;0.94;100.00
72157;BME280;60035;52.122;5.406;2023-03-03T01:25:46;102789.34;;;0.96;100.00
72157;BME280;60035;52.122;5.406;2023-03-03T01:28:13;102785.09;;;0.95;100.00
72157;BME280;60035;52.122;5.406;2023-03-03T01:30:39;102784.22;;;0.95;100.00
72157;BME280;60035;52.122;5.406;2023-03-03T01:33:06;102785.09;;;0.95;100.00
72157;BME280;60035;52.122;5.406;2023-03-03T01:35:33;102791.06;;;0.97;100.00
72157;BME280;60035;52.122;5.406;2023-03-03T01:38:02;102784.38;;;0.98;100.00
72157;BME280;60035;52.122;5.406;2023-03-03T01:40:29;102790.34;;;1.00;100.00
72157;BME280;60035;52.122;5.406;2023-03-03T01:42:59;102788.59;;;0.99;100.00
72157;BME280;60035;52.122;5.406;2023-03-03T01:45:36;102795.38;;;1.00;100.00
72157;BME280;60035;52.122;5.406;2023-03-03T01:48:35;102789.66;;;1.04;100.00
72157;BME280;60035;52.122;5.406;2023-03-03T01:51:13;102787.94;;;1.03;100.00
72157;BME280;60035;52.122;5.406;2023-03-03T01:53:43;102786.22;;;1.02;100.00
72157;BME280;60035;52.122;5.406;2023-03-03T01:56:11;102787.03;;;1.01;100.00
72157;BME280;60035;52.122;5.406;2023-03-03T01:58:48;102785.22;;;0.98;100.00
72157;BME280;60035;52.122;5.406;2023-03-03T02:01:20;102790.34;;;1.00;100.00
72157;BME280;60035;52.122;5.406;2023-03-03T02:03:47;102792.84;;;1.00;100.00
72157;BME280;60035;52.122;5.406;2023-03-03T02:06:17;102790.06;;;0.94;100.00
72157;BME280;60035;52.122;5.406;2023-03-03T02:08:53;102787.44;;;0.91;100.00
72157;BME280;60035;52.122;5.406;2023-03-03T02:11:21;102792.47;;;0.91;100.00
72157;BME280;60035;52.122;5.406;2023-03-03T02:13:48;102788.22;;;0.90;100.00
72157;BME280;60035;52.122;5.406;2023-03-03T02:16:15;102795.00;;;0.91;100.00
72157;BME280;60035;52.122;5.406;2023-03-03T02:18:41;102787.47;;;0.92;100.00
72157;BME280;60035;52.122;5.406;2023-03-03T02:21:11;102784.91;;;0.91;100.00
72157;BME280;60035;52.122;5.406;2023-03-03T02:26:23;102794.19;;;0.92;100.00
72157;BME280;60035;52.122;5.406;2023-03-03T02:28:50;102788.28;;;0.91;100.00
72157;BME280;60035;52.122;5.406;2023-03-03T02:31:20;102788.22;;;0.90;100.00
72157;BME280;60035;52.122;5.406;2023-03-03T02:33:49;102785.69;;;0.90;100.00
72157;BME280;60035;52.122;5.406;2023-03-03T02:36:25;102791.69;;;0.92;100.00
72157;BME280;60035;52.122;5.406;2023-03-03T02:41:49;102788.28;;;0.91;100.00
72157;BME280;60035;52.122;5.406;2023-03-03T02:44:21;102784.09;;;0.92;100.00
72157;BME280;60035;52.122;5.406;2023-03-03T02:46:50;102789.09;;;0.90;100.00
72157;BME280;60035;52.122;5.406;2023-03-03T02:49:23;102783.16;;;0.90;100.00
72157;BME280;60035;52.122;5.406;2023-03-03T02:51:50;102784.16;;;0.93;100.00
72157;BME280;60035;52.122;5.406;2023-03-03T02:54:19;102784.22;;;0.95;100.00
72157;BME280;60035;52.122;5.406;2023-03-03T02:56:46;102785.22;;;0.98;100.00
72157;BME280;60035;52.122;5.406;2023-03-03T02:59:13;102789.59;;;1.03;100.00
72157;BME280;60035;52.122;5.406;2023-03-03T03:01:40;102786.34;;;1.05;100.00
72157;BME280;60035;52.122;5.406;2023-03-03T03:04:15;102788.00;;;1.05;100.00
72157;BME280;60035;52.122;5.406;2023-03-03T03:06:43;102792.19;;;1.04;100.00
72157;BME280;60035;52.122;5.406;2023-03-03T03:09:10;102789.59;;;1.03;100.00
72157;BME280;60035;52.122;5.406;2023-03-03T03:11:37;102791.13;;;0.99;100.00
72157;BME280;60035;52.122;5.406;2023-03-03T03:14:05;102792.00;;;0.99;100.00
72157;BME280;60035;52.122;5.406;2023-03-03T03:16:33;102795.38;;;1.00;100.00
72157;BME280;60035;52.122;5.406;2023-03-03T03:19:00;102790.34;;;1.00;100.00
72157;BME280;60035;52.122;5.406;2023-03-03T03:21:28;102792.00;;;0.99;100.00
72157;BME280;60035;52.122;5.406;2023-03-03T03:23:55;102784.56;;;1.03;100.00
72157;BME280;60035;52.122;5.406;2023-03-03T03:26:21;102786.34;;;1.05;100.00
72157;BME280;60035;52.122;5.406;2023-03-03T03:28:49;102795.59;;;1.05;100.00
72157;BME280;60035;52.122;5.406;2023-03-03T03:31:17;102790.34;;;1.00;100.00
72157;BME280;60035;52.122;5.406;2023-03-03T03:33:44;102791.84;;;0.96;100.00
72157;BME280;60035;52.122;5.406;2023-03-03T03:36:11;102792.75;;;0.97;100.00
72157;BME280;60035;52.122;5.406;2023-03-03T03:38:38;102792.75;;;0.97;100.00
72157;BME280;60035;52.122;5.406;2023-03-03T03:41:06;102793.66;;;0.99;100.00
72157;BME280;60035;52.122;5.406;2023-03-03T03:43:33;102797.91;;;1.00;100.00
72157;BME280;60035;52.122;5.406;2023-03-03T03:46:00;102793.66;;;0.99;100.00
72157;BME280;60035;52.122;5.406;2023-03-03T03:48:27;102805.47;;;1.00;100.00
72157;BME280;60035;52.122;5.406;2023-03-03T03:50:54;102799.41;;;0.96;100.00
72157;BME280;60035;52.122;5.406;2023-03-03T03:53:21;102805.41;;;0.98;100.00
72157;BME280;60035;52.122;5.406;2023-03-03T03:55:47;102801.28;;;1.00;100.00
72157;BME280;60035;52.122;5.406;2023-03-03T03:58:15;102797.91;;;1.00;100.00
72157;BME280;60035;52.122;5.406;2023-03-03T04:00:43;102797.03;;;0.99;100.00
72157;BME280;60035;52.122;5.406;2023-03-03T04:03:11;102808.78;;;0.99;100.00
72157;BME280;60035;52.122;5.406;2023-03-03T04:05:40;102810.38;;;0.97;100.00
72157;BME280;60035;52.122;5.406;2023-03-03T04:08:07;102810.44;;;0.98;100.00
72157;BME280;60035;52.122;5.406;2023-03-03T04:10:34;102813.75;;;0.97;100.00
72157;BME280;60035;52.122;5.406;2023-03-03T04:13:01;102810.38;;;0.97;100.00
72157;BME280;60035;52.122;5.406;2023-03-03T04:15:27;102810.25;;;0.94;100.00
72157;BME280;60035;52.122;5.406;2023-03-03T04:17:54;102811.19;;;0.96;100.00
72157;BME280;60035;52.122;5.406;2023-03-03T04:20:20;102803.69;;;0.97;100.00
72157;BME280;60035;52.122;5.406;2023-03-03T04:22:47;102807.88;;;0.97;100.00
72157;BME280;60035;52.122;5.406;2023-03-03T04:25:15;102810.44;;;0.98;100.00
72157;BME280;60035;52.122;5.406;2023-03-03T04:27:43;102807.06;;;0.98;100.00
72157;BME280;60035;52.122;5.406;2023-03-03T04:30:11;102807.72;;;0.94;100.00
72157;BME280;60035;52.122;5.406;2023-03-03T04:32:38;102802.50;;;0.89;100.00
72157;BME280;60035;52.122;5.406;2023-03-03T04:35:06;102807.59;;;0.91;100.00
72157;BME280;60035;52.122;5.406;2023-03-03T04:37:34;102805.03;;;0.89;100.00
72157;BME280;60035;52.122;5.406;2023-03-03T04:40:03;102810.06;;;0.89;100.00
72157;BME280;60035;52.122;5.406;2023-03-03T04:42:31;102811.06;;;0.93;100.00
72157;BME280;60035;52.122;5.406;2023-03-03T04:44:57;102811.13;;;0.94;100.00
72157;BME280;60035;52.122;5.406;2023-03-03T04:47:24;102812.91;;;0.97;100.00
72157;BME280;60035;52.122;5.406;2023-03-03T04:49:51;102812.91;;;0.97;100.00
72157;BME280;60035;52.122;5.406;2023-03-03T04:52:18;102817.16;;;0.98;100.00
72157;BME280;60035;52.122;5.406;2023-03-03T04:54:45;102822.22;;;0.98;100.00
72157;BME280;60035;52.122;5.406;2023-03-03T04:57:12;102812.97;;;0.98;100.00
72157;BME280;60035;52.122;5.406;2023-03-03T04:59:38;102818.81;;;0.97;100.00
72157;BME280;60035;52.122;5.406;2023-03-03T05:02:05;102819.75;;;0.99;100.00
72157;BME280;60035;52.122;5.406;2023-03-03T05:04:32;102818.06;;;1.00;100.00
72157;BME280;60035;52.122;5.406;2023-03-03T05:06:58;102821.59;;;1.04;100.00
72157;BME280;60035;52.122;5.406;2023-03-03T05:09:25;102806.59;;;1.07;100.00
72157;BME280;60035;52.122;5.406;2023-03-03T05:11:53;102805.72;;;1.06;100.00
72157;BME280;60035;52.122;5.406;2023-03-03T05:14:20;102799.81;;;1.06;100.00
72157;BME280;60035;52.122;5.406;2023-03-03T05:16:47;102802.41;;;1.07;100.00
72157;BME280;60035;52.122;5.406;2023-03-03T05:19:13;102805.06;;;1.10;100.00
72157;BME280;60035;52.122;5.406;2023-03-03T05:21:40;102809.31;;;1.11;100.00
72157;BME280;60035;52.122;5.406;2023-03-03T05:24:09;102811.91;;;1.13;100.00
72157;BME280;60035;52.122;5.406;2023-03-03T05:26:36;102810.28;;;1.15;100.00
72157;BME280;60035;52.122;5.406;2023-03-03T05:29:03;102808.63;;;1.15;100.00
72157;BME280;60035;52.122;5.406;2023-03-03T05:31:30;102813.78;;;1.19;100.00
72157;BME280;60035;52.122;5.406;2023-03-03T05:33:56;102808.00;;;1.21;100.00
72157;BME280;60035;52.122;5.406;2023-03-03T05:36:23;102800.56;;;1.24;100.00
72157;BME280;60035;52.122;5.406;2023-03-03T05:38:50;102811.59;;;1.26;100.00
72157;BME280;60035;52.122;5.406;2023-03-03T05:41:17;102806.56;;;1.26;100.00
72157;BME280;60035;52.122;5.406;2023-03-03T05:43:44;102810.84;;;1.29;100.00
72157;BME280;60035;52.122;5.406;2023-03-03T05:46:11;102817.63;;;1.30;100.00
72157;BME280;60035;52.122;5.406;2023-03-03T05:48:37;102817.69;;;1.31;100.00
72157;BME280;60035;52.122;5.406;2023-03-03T05:51:04;102816.03;;;1.32;100.00
72157;BME280;60035;52.122;5.406;2023-03-03T05:53:31;102816.91;;;1.32;100.00
72157;BME280;60035;52.122;5.406;2023-03-03T05:55:58;102819.47;;;1.34;100.00
72157;BME280;60035;52.122;5.406;2023-03-03T05:58:24;102818.69;;;1.35;100.00
72157;BME280;60035;52.122;5.406;2023-03-03T06:00:51;102817.03;;;1.36;100.00
72157;BME280;60035;52.122;5.406;2023-03-03T06:03:18;102818.75;;;1.37;100.00
72157;BME280;60035;52.122;5.406;2023-03-03T06:05:45;102812.09;;;1.39;100.00
72157;BME280;60035;52.122;5.406;2023-03-03T06:08:12;102814.66;;;1.40;100.00
72157;BME280;60035;52.122;5.406;2023-03-03T06:10:38;102829.00;;;1.41;100.00
72157;BME280;60035;52.122;5.406;2023-03-03T06:13:05;102823.13;;;1.41;100.00
72157;BME280;60035;52.122;5.406;2023-03-03T06:15:32;102818.13;;;1.42;100.00
72157;BME280;60035;52.122;5.406;2023-03-03T06:17:58;102835.00;;;1.43;100.00
72157;BME280;60035;52.122;5.406;2023-03-03T06:20:25;102837.59;;;1.45;100.00
72157;BME280;60035;52.122;5.406;2023-03-03T06:22:53;102840.09;;;1.45;100.00
72157;BME280;60035;52.122;5.406;2023-03-03T06:25:19;102836.84;;;1.47;100.00
72157;BME280;60035;52.122;5.406;2023-03-03T06:27:46;102835.22;;;1.49;100.00
72157;BME280;60035;52.122;5.406;2023-03-03T06:30:13;102835.16;;;1.48;100.00
72157;BME280;60035;52.122;5.406;2023-03-03T06:32:40;102840.38;;;1.51;100.00
72157;BME280;60035;52.122;5.406;2023-03-03T06:35:07;102838.75;;;1.53;100.00
72157;BME280;60035;52.122;5.406;2023-03-03T06:37:33;102849.72;;;1.54;100.00
72157;BME280;60035;52.122;5.406;2023-03-03T06:40:00;102837.97;;;1.54;100.00
72157;BME280;60035;52.122;5.406;2023-03-03T06:42:26;102840.53;;;1.56;100.00
72157;BME280;60035;52.122;5.406;2023-03-03T06:44:53;102853.31;;;1.59;100.00
72157;BME280;60035;52.122;5.406;2023-03-03T06:47:20;102849.06;;;1.58;100.00
72157;BME280;60035;52.122;5.406;2023-03-03T06:49:46;102842.28;;;1.57;100.00
72157;BME280;60035;52.122;5.406;2023-03-03T06:52:18;102861.66;;;1.58;100.00
72157;BME280;60035;52.122;5.406;2023-03-03T06:54:45;102860.06;;;1.60;100.00
72157;BME280;60035;52.122;5.406;2023-03-03T06:57:31;102862.63;;;1.61;100.00
72157;BME280;60035;52.122;5.406;2023-03-03T07:00:11;102868.63;;;1.63;100.00
72157;BME280;60035;52.122;5.406;2023-03-03T07:02:39;102861.09;;;1.65;100.00
72157;BME280;60035;52.122;5.406;2023-03-03T07:05:16;102866.34;;;1.70;100.00
72157;BME280;60035;52.122;5.406;2023-03-03T07:07:44;102865.63;;;1.72;100.00
72157;BME280;60035;52.122;5.406;2023-03-03T07:10:22;102867.41;;;1.75;100.00
72157;BME280;60035;52.122;5.406;2023-03-03T07:12:49;102875.94;;;1.78;100.00
72157;BME280;60035;52.122;5.406;2023-03-03T07:15:20;102878.63;;;1.81;100.00
72157;BME280;60035;52.122;5.406;2023-03-03T07:17:48;102877.69;;;1.79;100.00
72157;BME280;60035;52.122;5.406;2023-03-03T07:20:22;102884.47;;;1.80;100.00
72157;BME280;60035;52.122;5.406;2023-03-03T07:22:49;102884.56;;;1.83;100.00
72157;BME280;60035;52.122;5.406;2023-03-03T07:25:29;102889.81;;;1.88;100.00
72157;BME280;60035;52.122;5.406;2023-03-03T07:28:23;102889.13;;;1.92;100.00
72157;BME280;60035;52.122;5.406;2023-03-03T07:30:55;102890.13;;;1.96;100.00
72157;BME280;60035;52.122;5.406;2023-03-03T07:33:28;102896.13;;;1.99;100.00
72157;BME280;60035;52.122;5.406;2023-03-03T07:35:57;102889.44;;;2.00;100.00
72157;BME280;60035;52.122;5.406;2023-03-03T07:38:36;102887.81;;;2.02;100.00
72157;BME280;60035;52.122;5.406;2023-03-03T07:41:16;102891.28;;;2.04;100.00
72157;BME280;60035;52.122;5.406;2023-03-03T07:46:24;102905.03;;;2.11;100.00
72157;BME280;60035;52.122;5.406;2023-03-03T07:48:55;102906.81;;;2.13;100.00
72157;BME280;60035;52.122;5.406;2023-03-03T07:51:28;102911.97;;;2.16;100.00
72157;BME280;60035;52.122;5.406;2023-03-03T07:56:48;102916.22;;;2.17;100.00
72157;BME280;60035;52.122;5.406;2023-03-03T07:59:23;102914.59;;;2.20;100.00
72157;BME280;60035;52.122;5.406;2023-03-03T08:01:53;102918.13;;;2.23;100.00
72157;BME280;60035;52.122;5.406;2023-03-03T08:06:55;102918.63;;;2.36;100.00
72157;BME280;60035;52.122;5.406;2023-03-03T08:12:09;102920.75;;;2.47;100.00
72157;BME280;60035;52.122;5.406;2023-03-03T08:14:39;102926.69;;;2.49;100.00
72157;BME280;60035;52.122;5.406;2023-03-03T08:17:35;102926.69;;;2.49;100.00
72157;BME280;60035;52.122;5.406;2023-03-03T08:23:10;102938.84;;;2.58;100.00
72157;BME280;60035;52.122;5.406;2023-03-03T08:25:37;102938.94;;;2.61;100.00
72157;BME280;60035;52.122;5.406;2023-03-03T08:28:04;102946.59;;;2.63;100.00
72157;BME280;60035;52.122;5.406;2023-03-03T08:30:31;102940.00;;;2.66;100.00
72157;BME280;60035;52.122;5.406;2023-03-03T08:32:59;102944.34;;;2.71;100.00
72157;BME280;60035;52.122;5.406;2023-03-03T08:35:26;102941.25;;;2.78;100.00
72157;BME280;60035;52.122;5.406;2023-03-03T08:37:53;102942.41;;;2.86;100.00
72157;BME280;60035;52.122;5.406;2023-03-03T08:40:20;102946.72;;;2.89;100.00
72157;BME280;60035;52.122;5.406;2023-03-03T08:42:47;102942.59;;;2.92;100.00
72157;BME280;60035;52.122;5.406;2023-03-03T08:45:14;102950.31;;;2.95;100.00
72157;BME280;60035;52.122;5.406;2023-03-03T08:47:41;102946.09;;;2.96;100.00
72157;BME280;60035;52.122;5.406;2023-03-03T08:50:11;102948.00;;;3.02;100.00
72157;BME280;60035;52.122;5.406;2023-03-03T08:52:37;102944.78;;;3.06;100.00
72157;BME280;60035;52.122;5.406;2023-03-03T08:55:04;102950.09;;;3.13;100.00
72157;BME280;60035;52.122;5.406;2023-03-03T08:57:34;102947.00;;;3.21;100.00
72157;BME280;60035;52.122;5.406;2023-03-03T09:00:00;102947.13;;;3.25;100.00
72157;BME280;60035;52.122;5.406;2023-03-03T09:02:27;102949.94;;;3.33;100.00
72157;BME280;60035;52.122;5.406;2023-03-03T09:04:54;102952.78;;;3.42;100.00
72157;BME280;60035;52.122;5.406;2023-03-03T09:07:20;102949.63;;;3.48;100.00
72157;BME280;60035;52.122;5.406;2023-03-03T09:09:47;102952.25;;;3.51;100.00
72157;BME280;60035;52.122;5.406;2023-03-03T09:12:16;102941.56;;;3.60;100.00
72157;BME280;60035;52.122;5.406;2023-03-03T09:14:43;102950.88;;;3.61;100.00
72157;BME280;60035;52.122;5.406;2023-03-03T09:17:26;102943.75;;;3.75;100.00
72157;BME280;60035;52.122;5.406;2023-03-03T09:19:57;102942.25;;;3.80;100.00
72157;BME280;60035;52.122;5.406;2023-03-03T09:22:25;102937.44;;;3.88;100.00
72157;BME280;60035;52.122;5.406;2023-03-03T09:24:54;102941.94;;;3.98;100.00
72157;BME280;60035;52.122;5.406;2023-03-03T09:27:35;102942.16;;;4.04;100.00
72157;BME280;60035;52.122;5.406;2023-03-03T09:30:26;102947.34;;;4.09;100.00
72157;BME280;60035;52.122;5.406;2023-03-03T09:32:56;102938.19;;;4.12;100.00
72157;BME280;60035;52.122;5.406;2023-03-03T09:35:37;102939.72;;;4.07;100.00
72157;BME280;60035;52.122;5.406;2023-03-03T09:48:57;102948.13;;;4.33;100.00
72157;BME280;60035;52.122;5.406;2023-03-03T09:52:02;102953.41;;;4.40;100.00
72157;BME280;60035;52.122;5.406;2023-03-03T09:57:23;102949.34;;;4.45;100.00
72157;BME280;60035;52.122;5.406;2023-03-03T10:08:24;102952.63;;;4.71;99.67
72157;BME280;60035;52.122;5.406;2023-03-03T10:30:25;102943.88;;;5.89;94.73
72157;BME280;60035;52.122;5.406;2023-03-03T10:33:17;102941.78;;;6.06;93.28
72157;BME280;60035;52.122;5.406;2023-03-03T10:41:31;102937.16;;;6.66;90.22
72157;BME280;60035;52.122;5.406;2023-03-03T10:47:07;102941.97;;;6.95;87.61
72157;BME280;60035;52.122;5.406;2023-03-03T10:55:51;102939.56;;;7.50;85.38
72157;BME280;60035;52.122;5.406;2023-03-03T10:58:18;102937.94;;;7.54;84.43
72157;BME280;60035;52.122;5.406;2023-03-03T11:06:33;102933.28;;;7.81;83.33
72157;BME280;60035;52.122;5.406;2023-03-03T11:14:38;102938.53;;;7.39;80.94
72157;BME280;60035;52.122;5.406;2023-03-03T11:17:51;102938.41;;;7.32;81.60
72157;BME280;60035;52.122;5.406;2023-03-03T11:26:08;102934.31;;;6.93;81.27
72157;BME280;60035;52.122;5.406;2023-03-03T11:29:00;102929.31;;;6.99;81.34
72157;BME280;60035;52.122;5.406;2023-03-03T11:31:48;102917.19;;;7.33;81.00
72157;BME280;60035;52.122;5.406;2023-03-03T11:37:07;102911.63;;;8.11;79.28
72157;BME280;60035;52.122;5.406;2023-03-03T11:39:36;102915.41;;;8.38;78.61
72157;BME280;60035;52.122;5.406;2023-03-03T11:42:27;102910.69;;;8.69;77.82
72157;BME280;60035;52.122;5.406;2023-03-03T11:45:05;102912.72;;;8.98;75.79
72157;BME280;60035;52.122;5.406;2023-03-03T11:47:42;102920.03;;;8.64;73.84
72157;BME280;60035;52.122;5.406;2023-03-03T11:56:12;102909.28;;;8.27;74.80
72157;BME280;60035;52.122;5.406;2023-03-03T11:59:13;102904.69;;;8.64;73.79
72157;BME280;60035;52.122;5.406;2023-03-03T12:02:16;102901.75;;;9.05;73.46
72157;BME280;60035;52.122;5.406;2023-03-03T12:04:55;102896.78;;;9.22;70.10
72157;BME280;60035;52.122;5.406;2023-03-03T12:07:35;102897.75;;;9.37;70.73
72157;BME280;60035;52.122;5.406;2023-03-03T12:10:23;102898.66;;;9.40;68.25
72157;BME280;60035;52.122;5.406;2023-03-03T12:18:35;102882.41;;;9.33;67.10
72157;BME280;60035;52.122;5.406;2023-03-03T12:21:14;102874.94;;;9.57;66.63
72157;BME280;60035;52.122;5.406;2023-03-03T12:24:48;102884.47;;;9.84;67.31
72157;BME280;60035;52.122;5.406;2023-03-03T12:41:00;102876.84;;;8.86;68.46
72157;BME280;60035;52.122;5.406;2023-03-03T12:46:32;102872.97;;;9.28;64.91
72157;BME280;60035;52.122;5.406;2023-03-03T12:49:00;102870.28;;;9.14;65.02
72157;BME280;60035;52.122;5.406;2023-03-03T12:52:01;102864.34;;;9.16;65.04
72157;BME280;60035;52.122;5.406;2023-03-03T12:57:37;102848.81;;;10.12;64.66
72157;BME280;60035;52.122;5.406;2023-03-03T13:00:21;102848.97;;;10.43;63.30
72157;BME280;60035;52.122;5.406;2023-03-03T13:05:42;102852.88;;;9.74;63.61
72157;BME280;60035;52.122;5.406;2023-03-03T13:19:40;102859.81;;;8.88;67.48
72157;BME280;60035;52.122;5.406;2023-03-03T13:22:15;102863.16;;;8.80;67.61
72157;BME280;60035;52.122;5.406;2023-03-03T13:27:39;102861.41;;;8.75;67.54
72157;BME280;60035;52.122;5.406;2023-03-03T13:30:22;102854.59;;;8.75;67.44
72157;BME280;60035;52.122;5.406;2023-03-03T13:33:16;102854.56;;;8.72;67.34
72157;BME280;60035;52.122;5.406;2023-03-03T13:35:50;102857.94;;;8.70;66.87
72157;BME280;60035;52.122;5.406;2023-03-03T13:38:22;102858.69;;;8.62;66.35
72157;BME280;60035;52.122;5.406;2023-03-03T13:40:53;102857.75;;;8.54;66.62
72157;BME280;60035;52.122;5.406;2023-03-03T13:43:28;102857.59;;;8.42;66.71
72157;BME280;60035;52.122;5.406;2023-03-03T13:46:04;102854.97;;;8.37;67.50
72157;BME280;60035;52.122;5.406;2023-03-03T13:49:14;102860.00;;;8.31;67.63
72157;BME280;60035;52.122;5.406;2023-03-03T13:52:01;102854.78;;;8.22;68.29
72157;BME280;60035;52.122;5.406;2023-03-03T13:59:51;102851.25;;;8.12;69.66
72157;BME280;60035;52.122;5.406;2023-03-03T14:05:40;102846.00;;;8.03;68.93
72157;BME280;60035;52.122;5.406;2023-03-03T14:17:04;102849.25;;;7.91;67.94
72157;BME280;60035;52.122;5.406;2023-03-03T14:19:36;102843.22;;;7.86;67.22
72157;BME280;60035;52.122;5.406;2023-03-03T14:28:19;102841.59;;;7.91;67.02
72157;BME280;60035;52.122;5.406;2023-03-03T14:30:40;102834.00;;;7.94;66.95
72157;BME280;60035;52.122;5.406;2023-03-03T14:38:39;102834.63;;;7.79;66.19
72157;BME280;60035;52.122;5.406;2023-03-03T14:41:18;102829.66;;;7.87;65.88
72157;BME280;60035;52.122;5.406;2023-03-03T14:43:56;102834.75;;;7.87;65.41
72157;BME280;60035;52.122;5.406;2023-03-03T14:48:56;102825.56;;;7.98;65.04
72157;BME280;60035;52.122;5.406;2023-03-03T14:51:32;102816.22;;;8.00;64.62
72157;BME280;60035;52.122;5.406;2023-03-03T14:54:20;102820.50;;;8.03;64.49
72157;BME280;60035;52.122;5.406;2023-03-03T14:56:56;102825.63;;;8.04;64.78
72157;BME280;60035;52.122;5.406;2023-03-03T14:59:25;102821.19;;;7.91;64.15
72157;BME280;60035;52.122;5.406;2023-03-03T15:02:02;102828.69;;;7.78;64.78
72157;BME280;60035;52.122;5.406;2023-03-03T15:04:38;102815.03;;;7.76;64.84
72157;BME280;60035;52.122;5.406;2023-03-03T15:07:35;102825.03;;;7.61;65.18
72157;BME280;60035;52.122;5.406;2023-03-03T15:10:03;102818.06;;;7.49;65.43
72157;BME280;60035;52.122;5.406;2023-03-03T15:19:28;102810.53;;;7.57;66.98
72157;BME280;60035;52.122;5.406;2023-03-03T15:33:26;102808.41;;;7.29;67.49
72157;BME280;60035;52.122;5.406;2023-03-03T15:38:33;102807.50;;;7.26;67.13
72157;BME280;60035;52.122;5.406;2023-03-03T15:41:16;102806.63;;;7.24;67.24
72157;BME280;60035;52.122;5.406;2023-03-03T16:03:56;102799.31;;;6.93;67.05
72157;BME280;60035;52.122;5.406;2023-03-03T16:14:56;102805.81;;;6.77;67.56
72157;BME280;60035;52.122;5.406;2023-03-03T16:17:37;102810.88;;;6.76;67.22
72157;BME280;60035;52.122;5.406;2023-03-03T16:31:27;102803.00;;;6.62;67.59
72157;BME280;60035;52.122;5.406;2023-03-03T16:34:11;102808.06;;;6.60;67.46
72157;BME280;60035;52.122;5.406;2023-03-03T16:37:04;102804.66;;;6.60;67.96
72157;BME280;60035;52.122;5.406;2023-03-03T16:39:46;102800.44;;;6.60;67.70
72157;BME280;60035;52.122;5.406;2023-03-03T16:42:29;102800.31;;;6.54;68.14
72157;BME280;60035;52.122;5.406;2023-03-03T16:47:41;102801.06;;;6.50;68.27
72157;BME280;60035;52.122;5.406;2023-03-03T16:53:40;102796.03;;;6.53;68.84
72157;BME280;60035;52.122;5.406;2023-03-03T16:56:31;102808.72;;;6.50;68.71
72157;BME280;60035;52.122;5.406;2023-03-03T17:04:50;102805.97;;;6.39;68.96
72157;BME280;60035;52.122;5.406;2023-03-03T17:10:35;102805.00;;;6.32;69.75
72157;BME280;60035;52.122;5.406;2023-03-03T17:13:46;102810.09;;;6.34;69.70
72157;BME280;60035;52.122;5.406;2023-03-03T17:16:13;102809.28;;;6.35;70.09
72157;BME280;60035;52.122;5.406;2023-03-03T17:19:05;102807.53;;;6.32;70.15
72157;BME280;60035;52.122;5.406;2023-03-03T17:22:00;102815.09;;;6.31;70.42
72157;BME280;60035;52.122;5.406;2023-03-03T17:24:40;102817.59;;;6.28;70.14
72157;BME280;60035;52.122;5.406;2023-03-03T17:30:41;102821.00;;;6.28;70.53
72157;BME280;60035;52.122;5.406;2023-03-03T17:33:22;102824.34;;;6.26;70.76
72157;BME280;60035;52.122;5.406;2023-03-03T17:35:56;102820.09;;;6.25;71.23
72157;BME280;60035;52.122;5.406;2023-03-03T17:46:38;102827.56;;;6.17;71.67